French Lick, IN

7:30 AM EDT on July 21, 2017 (GMT -0400)
fL | | Change Station
Active Advisory: Heat Advisory

Elev 758 ft 38.53 °N, 86.65 °W | Updated 12 minutes ago

Mostly Cloudy
Mostly Cloudy
75.7 °F
Feels Like 75 °F
N
0.0
Wind Variable Wind from WSW
Gusts 4.0 mph

Today
High -- | Low -- °F
--% Chance of Precip.
Yesterday
High -- | Low -- °F
Precip. -- in
Pressure 30.00 in
Visibility 6.0 miles
Clouds Clear
Heat Index 75 °F
Dew Point 74 °F
Humidity 94%
Rainfall 0.00 in
Snow Depth Not available.
6:39 AM 9:06 PM
Waning Crescent, 5% visible
METAR KHNB 211056Z AUTO 18003KT 6SM BR CLR 24/23 A3002 RMK AO2 SLP159 T02390228
Pressure 30.00 in
Visibility 6.0 miles
Clouds Clear
Heat Index 75 °F
Dew Point 74 °F
Humidity 94%
Rainfall 0.00 in
Snow Depth Not available.
6:39 AM 9:06 PM
Waning Crescent, 5% visible
METAR KHNB 211056Z AUTO 18003KT 6SM BR CLR 24/23 A3002 RMK AO2 SLP159 T02390228

Get Your Daily Forecast Email!

Thanks for signing up!

Be on the lookout for a verification email in your inbox.

You'll start receiving severe weather alerts in your inbox..

×

10-Day Weather Forecast

Almanac

Astronomy

Jul. 21, 2017 Rise Set
Actual Time
Civil Twilight
Nautical Twilight
Astronomical Twilight
Moon
Length of Visible Light
Length of Day
Tomorrow will be .
, % of the Moon is Illuminated

Today's Extremes

State Highs State Lows

Community

WunderPhotos

Category 6

Welcome to Category 6. This is the collective home for Weather Underground's featured writeups by Dr. Jeff Masters (right), Bob Henson (left), Chris Burt, and other regular contributors.

Nearby

Air Quality

  Air Quality AQ Index Pollutant
Not available.

Snow Depth

Station Depth Elevation

Earthquake Activity

City Distance Mag. Time & Date
Minimum magnitude displayed is 2.5.

Coastal Water Temperatures

Place Temperature

Stations

Nearby Weather Stations

Station Location Temp. Windchill Dew Point Humidity Wind Precip. Elev Updated Type
                   

Watches & Warnings

Heat Advisory
Issued: 2:45 AM CDT Jul. 21, 2017 – National Weather Service

... Heat advisory remains in effect from noon EDT /11 am CDT/
today to 8 PM EDT /7 PM CDT/ Saturday...

* heat index values... peak heat index values 105 to 109 each
afternoon.

* Impacts... the combination of hot temperatures and high
humidity will lead to an increased risk of heat related stress
and illnesses. The very Young, the elderly, those without air
conditioning, and those participating in strenuous outdoor
activities will be the most susceptible.

Precautionary/preparedness actions...

Take extra precautions... if you work or spend time outside. When
possible... reschedule strenuous activities to early morning or
evening. Know the signs and symptoms of heat exhaustion and heat
stroke. Wear light weight and loose fitting clothing when
possible and drink plenty of water.



Ras